createdAt,value
2019-04-27T00:00:19.646Z,12
2019-04-27T00:16:13.263Z,11
2019-04-27T00:26:39.382Z,11
2019-04-27T00:42:24.075Z,11
2019-04-27T00:47:38.464Z,11
2019-04-27T00:52:54.344Z,11
2019-04-27T01:14:09.315Z,11
2019-04-27T01:29:50.876Z,10
2019-04-27T01:45:32.527Z,10
2019-04-27T01:50:49.872Z,10
2019-04-27T01:56:11.406Z,10
2019-04-27T02:06:39.426Z,10
2019-04-27T02:17:05.655Z,10
2019-04-27T02:22:20.945Z,10
2019-04-27T02:37:57.239Z,9
2019-04-27T02:43:16.002Z,9
2019-04-27T02:48:30.230Z,9
2019-04-27T02:53:45.845Z,9
2019-04-27T02:59:00.630Z,9
2019-04-27T03:04:20.141Z,9
2019-04-27T03:09:33.541Z,9
2019-04-27T03:14:46.833Z,9
2019-04-27T03:20:02.375Z,9
2019-04-27T03:25:16.642Z,9
2019-04-27T03:30:43.432Z,9
2019-04-27T03:35:55.591Z,9
2019-04-27T03:41:12.758Z,9
2019-04-27T03:47:01.963Z,9
2019-04-27T03:52:20.794Z,9
2019-04-27T03:57:40.763Z,9
2019-04-27T04:02:57.012Z,10
2019-04-27T04:08:13.623Z,10
2019-04-27T04:13:34.739Z,10
2019-04-27T04:18:50.762Z,10
2019-04-27T04:24:08.964Z,10
2019-04-27T04:29:31.553Z,10
2019-04-27T04:34:46.213Z,11
2019-04-27T04:40:01.759Z,11
2019-04-27T04:45:16.787Z,11
2019-04-27T04:50:32.432Z,11
2019-04-27T04:55:51.985Z,11
2019-04-27T05:01:10.866Z,12
2019-04-27T05:06:26.652Z,13
2019-04-27T05:11:41.569Z,14
2019-04-27T05:16:59.759Z,14
2019-04-27T05:22:19.923Z,15
2019-04-27T05:27:40.908Z,15
2019-04-27T05:32:58.903Z,16
2019-04-27T05:38:16.813Z,17
2019-04-27T05:43:34.081Z,17
2019-04-27T05:48:51.783Z,18
2019-04-27T05:54:09.202Z,18
2019-04-27T05:59:27.032Z,18
2019-04-27T06:41:18.834Z,17
2019-04-27T06:51:43.823Z,17
2019-04-27T06:56:59.929Z,18
2019-04-27T07:02:14.738Z,18
2019-04-27T07:07:30.519Z,18
2019-04-27T07:12:45.350Z,18
2019-04-27T07:18:00.718Z,19
2019-04-27T07:23:16.071Z,19
2019-04-27T07:28:34.080Z,19
2019-04-27T07:33:57.314Z,20
2019-04-27T07:39:15.855Z,20
2019-04-27T07:49:47.020Z,20
2019-04-27T07:55:01.247Z,21
2019-04-27T08:00:15.827Z,21
2019-04-27T08:05:31.466Z,21
2019-04-27T08:10:50.720Z,22
2019-04-27T08:31:48.462Z,22
2019-04-27T08:42:16.485Z,22
2019-04-27T08:47:32.426Z,22
2019-04-27T08:52:51.172Z,23
2019-04-27T08:58:05.488Z,23
2019-04-27T09:03:20.649Z,23
2019-04-27T09:13:49.131Z,24
2019-04-27T09:19:06.312Z,24
2019-04-27T09:24:29.801Z,24
2019-04-27T09:29:44.589Z,24
2019-04-27T10:11:35.215Z,26
2019-04-27T12:33:00.924Z,29
2019-04-27T12:38:17.547Z,30
2019-04-27T12:48:57.775Z,32
2019-04-27T15:15:45.105Z,29
2019-04-27T15:36:44.808Z,28
2019-04-27T15:42:09.787Z,28
2019-04-27T15:52:38.226Z,28
2019-04-27T15:57:53.500Z,27
2019-04-27T16:08:19.553Z,27
2019-04-27T16:13:35.950Z,27
2019-04-27T16:18:51.391Z,26
2019-04-27T16:24:05.899Z,26
2019-04-27T16:29:31.593Z,26
2019-04-27T16:34:45.306Z,26
2019-04-27T16:40:02.890Z,25
2019-04-27T16:45:27.000Z,25
2019-04-27T16:50:41.891Z,25
2019-04-27T16:56:06.159Z,24
2019-04-27T17:06:49.889Z,24
2019-04-27T17:12:09.891Z,24
2019-04-27T17:17:29.160Z,23
2019-04-27T17:22:53.636Z,23
2019-04-27T17:28:16.543Z,23
2019-04-27T17:33:34.174Z,23
2019-04-27T17:38:51.805Z,23
2019-04-27T17:44:06.380Z,22
2019-04-27T17:49:23.030Z,22
2019-04-27T17:54:48.847Z,22
2019-04-27T18:00:06.529Z,22
2019-04-27T18:05:22.806Z,22
2019-04-27T18:10:38.836Z,22
2019-04-27T18:15:55.142Z,22
2019-04-27T18:21:15.581Z,21
2019-04-27T18:26:31.834Z,21
2019-04-27T18:31:54.743Z,21
2019-04-27T18:37:24.805Z,21
2019-04-27T18:42:39.566Z,21
2019-04-27T18:47:55.016Z,20
2019-04-27T18:53:24.576Z,20
2019-04-27T18:58:36.849Z,20
2019-04-27T19:03:54.636Z,20
2019-04-27T19:09:14.575Z,20
2019-04-27T19:14:29.942Z,20
2019-04-27T19:19:47.332Z,19
2019-04-27T19:25:03.884Z,19
2019-04-27T19:30:23.454Z,19
2019-04-27T19:35:38.373Z,19
2019-04-27T19:40:54.656Z,19
2019-04-27T19:46:14.784Z,19
2019-04-27T19:51:32.937Z,19
2019-04-27T19:56:47.183Z,19
2019-04-27T20:02:02.382Z,18
2019-04-27T20:07:18.943Z,18
2019-04-27T20:12:41.599Z,18
2019-04-27T20:17:55.603Z,18
2019-04-27T20:23:10.587Z,18
2019-04-27T20:28:26.089Z,18
2019-04-27T20:33:42.309Z,18
2019-04-27T20:38:57.234Z,18
2019-04-27T20:44:13.713Z,18
2019-04-27T20:49:33.743Z,18
2019-04-27T20:54:48.868Z,18
2019-04-27T21:00:06.910Z,18
2019-04-27T21:05:22.662Z,18
2019-04-27T21:10:38.967Z,18
2019-04-27T21:15:56.125Z,18
2019-04-27T21:21:12.360Z,17
2019-04-27T21:26:27.571Z,17
2019-04-27T21:31:44.292Z,17
2019-04-27T21:37:02.005Z,17
2019-04-27T21:42:16.345Z,17
2019-04-27T21:47:30.742Z,17
2019-04-27T21:52:46.764Z,17
2019-04-27T21:58:02.690Z,17
2019-04-27T22:08:32.799Z,16
2019-04-27T22:18:59.412Z,16
2019-04-27T22:24:22.115Z,16
2019-04-27T22:34:48.389Z,16
2019-04-27T22:40:02.526Z,15
2019-04-27T22:55:42.195Z,15
2019-04-27T23:00:56.259Z,15
2019-04-27T23:06:13.115Z,15
2019-04-27T23:11:34.019Z,15
2019-04-27T23:16:54.483Z,15
2019-04-27T23:22:11.291Z,15
2019-04-27T23:27:24.077Z,15
2019-04-27T23:32:38.357Z,15
2019-04-27T23:37:53.538Z,14
2019-04-27T23:43:12.183Z,14
2019-04-27T23:48:27.969Z,14
2019-04-27T23:53:42.747Z,14
2019-04-27T23:59:01.144Z,14
